Time;durP1;ratioP1;P1;durP2;ratioP2;P2;SDS_P1;SDS_P2;PMS_P1;PMS_P2;Temp;Humidity;BMP_temperature;BMP_pressure;BME280_temperature;BME280_humidity;BME280_pressure;Samples;Min_cycle;Max_cycle;Signal;HPM_P1;HPM_P2
2022/08/12 00:51:05;;;;;;;3.50;1.80;;;24.50;53.10;;;;;;10524053;28;20066;-55
2022/08/12 00:56:06;;;;;;;2.00;1.80;;;24.50;53.30;;;;;;10521190;28;20035;-54
2022/08/12 01:01:07;;;;;;;3.08;2.28;;;24.50;53.30;;;;;;10538834;28;20683;-55
2022/08/12 01:11:30;;;;;;;2.42;1.98;;;24.50;53.30;;;;;;10538840;28;20068;-55
2022/08/12 01:16:31;;;;;;;2.20;1.80;;;24.50;53.40;;;;;;10521283;28;20072;-55
2022/08/12 01:22:15;;;;;;;2.58;2.08;;;24.50;53.50;;;;;;10519414;28;20048;-55
2022/08/12 01:27:17;;;;;;;2.60;2.13;;;24.50;53.40;;;;;;10538405;28;20020;-55
2022/08/12 01:32:21;;;;;;;2.88;2.08;;;24.50;53.50;;;;;;10519885;28;20376;-55
2022/08/12 01:37:24;;;;;;;2.80;2.10;;;24.50;53.60;;;;;;10537769;28;20029;-54
2022/08/12 01:42:30;;;;;;;2.90;2.20;;;24.50;53.60;;;;;;10519634;28;20032;-55
2022/08/12 01:48:13;;;;;;;2.60;2.00;;;24.50;53.50;;;;;;10520082;28;20039;-54
2022/08/12 01:53:16;;;;;;;3.10;2.30;;;24.50;53.70;;;;;;10524405;28;20032;-53
2022/08/12 02:15:45;;;;;;;2.67;1.83;;;24.50;53.90;;;;;;10537022;28;20039;-55
2022/08/12 02:20:56;;;;;;;2.20;1.80;;;24.50;53.90;;;;;;10492702;28;20058;-54
2022/08/12 02:26:05;;;;;;;2.17;1.73;;;24.50;53.80;;;;;;10518309;28;20040;-57
2022/08/12 02:31:07;;;;;;;;;;;24.50;53.80;;;;;;10510467;28;20611;-54
2022/08/12 02:36:08;;;;;;;2.08;1.88;;;24.40;53.70;;;;;;10535312;28;19923;-54
2022/08/12 02:41:11;;;;;;;2.38;1.88;;;24.40;53.80;;;;;;10534814;28;20137;-53
2022/08/12 02:46:18;;;;;;;2.47;2.08;;;24.40;53.90;;;;;;10517171;28;20104;-55
2022/08/12 02:51:24;;;;;;;3.95;2.30;;;24.40;53.80;;;;;;10516891;28;20039;-54
2022/08/12 02:56:27;;;;;;;2.55;2.10;;;24.40;54.00;;;;;;10521370;28;20391;-55
2022/08/12 03:01:34;;;;;;;2.10;1.85;;;24.40;54.00;;;;;;10534224;28;20122;-55
2022/08/12 03:06:46;;;;;;;2.88;2.20;;;24.40;54.00;;;;;;10516151;28;20028;-54
2022/08/12 03:11:58;;;;;;;2.70;2.05;;;24.40;54.00;;;;;;10516147;28;20059;-54
2022/08/12 03:17:42;;;;;;;2.42;2.05;;;24.40;54.10;;;;;;10516177;28;20024;-53
2022/08/12 03:22:44;;;;;;;3.97;2.13;;;24.40;54.00;;;;;;10487468;28;20043;-54
2022/08/12 03:27:50;;;;;;;2.55;2.33;;;24.40;54.10;;;;;;10514819;28;20082;-54
2022/08/12 03:32:54;;;;;;;3.10;2.05;;;24.40;54.20;;;;;;10532952;28;20081;-54
2022/08/12 03:37:58;;;;;;;2.83;2.50;;;24.40;54.20;;;;;;10531034;28;20425;-54
2022/08/12 04:04:33;;;;;;;3.50;2.58;;;24.30;54.30;;;;;;10530593;28;20044;-55
2022/08/12 04:09:39;;;;;;;4.15;3.25;;;24.30;54.50;;;;;;10508912;28;20027;-55
2022/08/12 04:14:39;;;;;;;4.03;3.10;;;24.30;54.60;;;;;;10510540;28;20532;-53
2022/08/12 04:19:41;;;;;;;3.50;2.95;;;24.30;54.60;;;;;;10530979;28;20077;-55
2022/08/12 04:24:43;;;;;;;3.97;3.47;;;24.30;54.60;;;;;;10513524;28;20094;-55
2022/08/12 04:29:43;;;;;;;3.53;3.22;;;24.30;54.70;;;;;;10511612;28;20036;-55
2022/08/12 04:34:44;;;;;;;4.40;3.95;;;24.30;55.00;;;;;;10529979;28;20503;-54
2022/08/12 04:39:46;;;;;;;4.97;4.30;;;24.30;55.20;;;;;;10512237;28;20040;-55
2022/08/12 04:44:47;;;;;;;4.60;4.20;;;24.30;55.40;;;;;;10505196;28;20048;-54
2022/08/12 04:49:48;;;;;;;5.70;5.00;;;24.30;55.30;;;;;;10531190;28;20078;-54
2022/08/12 04:54:49;;;;;;;8.82;4.97;;;24.40;56.50;;;;;;10513468;28;20437;-56
2022/08/12 04:59:50;;;;;;;7.45;5.32;;;24.60;56.00;;;;;;10519860;28;20032;-54
2022/08/12 05:04:56;;;;;;;8.93;4.72;;;24.50;56.80;;;;;;10532873;28;20038;-55
2022/08/12 05:09:57;;;;;;;7.30;3.75;;;24.50;56.50;;;;;;10519590;28;20032;-56
2022/08/12 05:14:58;;;;;;;9.70;3.90;;;24.50;56.30;;;;;;10520164;28;20620;-55
2022/08/12 05:19:59;;;;;;;9.20;3.80;;;24.50;56.50;;;;;;10534237;28;20114;-56
2022/08/12 05:25:00;;;;;;;5.65;4.57;;;24.40;56.30;;;;;;10516530;28;20110;-58
2022/08/12 05:30:01;;;;;;;6.63;3.30;;;24.40;56.50;;;;;;10498675;28;20031;-55
2022/08/12 05:35:05;;;;;;;7.50;3.55;;;24.40;56.70;;;;;;10507836;28;20016;-57
2022/08/12 05:40:06;;;;;;;5.43;3.55;;;24.40;56.50;;;;;;10484164;28;20043;-56
2022/08/12 05:45:08;;;;;;;4.63;2.97;;;24.40;56.50;;;;;;10532663;28;20067;-56
2022/08/12 05:50:10;;;;;;;10.32;4.10;;;24.30;56.30;;;;;;10523542;28;20064;-56
2022/08/12 05:55:10;;;;;;;4.47;2.97;;;24.30;56.30;;;;;;10534557;28;20020;-56
2022/08/12 06:00:13;;;;;;;6.60;4.03;;;24.30;56.30;;;;;;10535584;28;20032;-56
2022/08/12 06:05:13;;;;;;;4.00;3.08;;;24.30;56.30;;;;;;10517584;28;20118;-56
2022/08/12 06:10:18;;;;;;;5.65;2.92;;;24.30;56.40;;;;;;10534652;28;20024;-57
2022/08/12 06:15:20;;;;;;;5.30;3.30;;;24.30;56.30;;;;;;10517064;28;20082;-56
2022/08/12 06:20:20;;;;;;;3.45;2.67;;;24.30;56.30;;;;;;10500584;28;20039;-56
2022/08/12 06:25:21;;;;;;;4.25;3.35;;;24.30;56.30;;;;;;10534642;28;20046;-56
2022/08/12 06:30:22;;;;;;;3.15;2.58;;;24.30;56.30;;;;;;10533838;28;20457;-56
2022/08/12 06:35:25;;;;;;;4.55;2.95;;;24.30;56.30;;;;;;10533985;28;20032;-54
2022/08/12 06:45:46;;;;;;;3.83;2.60;;;24.30;56.20;;;;;;10534580;28;20483;-55
2022/08/12 06:50:48;;;;;;;3.65;2.97;;;24.30;56.30;;;;;;10515202;28;20024;-56
2022/08/12 06:55:49;;;;;;;3.95;2.97;;;24.30;56.30;;;;;;10499318;28;20679;-55
2022/08/12 07:00:50;;;;;;;3.63;2.97;;;24.30;56.30;;;;;;10533581;28;20032;-55
2022/08/12 07:05:51;;;;;;;5.28;2.95;;;24.30;56.30;;;;;;10514929;28;20466;-56
2022/08/12 07:10:57;;;;;;;3.00;2.70;;;24.30;56.30;;;;;;10533614;28;20566;-56
2022/08/12 07:15:59;;;;;;;4.30;2.80;;;24.30;56.20;;;;;;10532592;28;20023;-56
2022/08/12 07:21:05;;;;;;;5.55;3.67;;;24.30;56.20;;;;;;10513575;28;20035;-56
2022/08/12 07:26:09;;;;;;;4.93;2.60;;;24.30;56.20;;;;;;10514361;28;20032;-56
2022/08/12 07:31:11;;;;;;;3.85;2.85;;;24.30;56.20;;;;;;10524894;28;20452;-55
2022/08/12 07:36:13;;;;;;;3.72;2.88;;;24.30;56.10;;;;;;10505490;28;20024;-55
2022/08/12 07:41:19;;;;;;;3.55;2.97;;;24.30;55.70;;;;;;10503205;28;20103;-55
2022/08/12 07:46:30;;;;;;;4.38;2.92;;;24.30;55.60;;;;;;10514043;28;20040;-56
2022/08/12 07:51:31;;;;;;;3.72;2.70;;;24.30;55.70;;;;;;10531377;28;20032;-56
2022/08/12 07:56:32;;;;;;;4.57;3.20;;;24.40;55.70;;;;;;10513357;28;20378;-55
2022/08/12 08:01:33;;;;;;;3.95;3.20;;;24.40;55.60;;;;;;10531234;28;20040;-56
2022/08/12 08:06:38;;;;;;;3.08;2.42;;;24.40;55.60;;;;;;10513203;28;20035;-55
2022/08/12 08:17:02;;;;;;;4.75;2.90;;;24.50;55.50;;;;;;10516062;28;20041;-56
2022/08/12 08:22:02;;;;;;;3.80;2.75;;;24.40;55.50;;;;;;10512619;28;20027;-56
2022/08/12 08:27:03;;;;;;;3.78;3.22;;;24.50;55.70;;;;;;10525320;28;20034;-56
2022/08/12 08:32:06;;;;;;;3.30;2.45;;;24.50;55.60;;;;;;10533187;28;20039;-55
2022/08/12 08:37:07;;;;;;;3.85;2.85;;;24.50;55.60;;;;;;10530686;28;20022;-56
2022/08/12 08:47:26;;;;;;;4.00;3.20;;;24.50;55.70;;;;;;10496859;28;20074;-55
2022/08/12 08:52:27;;;;;;;3.53;3.22;;;24.50;55.60;;;;;;10495747;28;20119;-55
2022/08/12 08:57:28;;;;;;;3.60;2.85;;;24.50;55.60;;;;;;10494554;28;20032;-56
2022/08/12 09:02:29;;;;;;;5.55;3.60;;;24.50;55.50;;;;;;10496092;28;20037;-55
2022/08/12 09:07:29;;;;;;;3.13;2.83;;;24.50;55.40;;;;;;10494325;28;20028;-56
2022/08/12 09:17:54;;;;;;;4.30;2.60;;;24.60;55.50;;;;;;10484818;28;20044;-57
2022/08/12 09:22:56;;;;;;;3.55;2.92;;;24.60;55.50;;;;;;10493629;28;20470;-57
2022/08/12 09:27:58;;;;;;;2.80;2.40;;;24.60;55.30;;;;;;10495208;28;20033;-55
2022/08/12 09:32:59;;;;;;;3.88;2.90;;;24.60;55.40;;;;;;10494359;28;20032;-57
2022/08/12 09:38:03;;;;;;;3.90;2.60;;;24.60;55.30;;;;;;10491626;28;20132;-56
2022/08/12 09:48:23;;;;;;;4.03;2.85;;;24.60;55.40;;;;;;10523945;28;20035;-56
2022/08/12 09:53:26;;;;;;;2.63;2.08;;;24.60;55.90;;;;;;10536043;28;20059;-56
2022/08/12 09:58:27;;;;;;;3.00;2.70;;;24.70;55.40;;;;;;10518001;28;20028;-56
2022/08/12 10:03:31;;;;;;;7.10;3.38;;;24.70;55.40;;;;;;10535468;28;20039;-55
2022/08/12 10:08:34;;;;;;;6.32;3.20;;;24.70;54.90;;;;;;10517443;28;20035;-56
2022/08/12 10:13:41;;;;;;;4.72;2.75;;;24.60;55.10;;;;;;10535050;28;20032;-56
2022/08/12 10:18:45;;;;;;;3.40;2.25;;;24.60;55.20;;;;;;10534391;28;20024;-56
2022/08/12 10:23:48;;;;;;;5.28;2.78;;;24.60;55.30;;;;;;10515865;28;20140;-56
2022/08/12 10:34:08;;;;;;;3.90;2.53;;;24.60;55.00;;;;;;10518714;28;20060;-57
2022/08/12 10:39:13;;;;;;;3.72;2.83;;;24.60;54.80;;;;;;10506922;28;20107;-55
2022/08/12 10:44:14;;;;;;;3.45;2.40;;;24.60;55.50;;;;;;10533544;28;20040;-55
2022/08/12 10:49:15;;;;;;;2.92;2.53;;;24.60;54.80;;;;;;10533225;28;20020;-57
2022/08/12 10:54:16;;;;;;;3.08;2.60;;;24.60;55.00;;;;;;10532524;28;20032;-57
2022/08/12 10:59:20;;;;;;;2.63;2.42;;;24.60;54.50;;;;;;10515022;28;20409;-55
2022/08/12 11:04:22;;;;;;;3.42;2.97;;;24.60;54.40;;;;;;10532529;28;20032;-56
2022/08/12 11:09:29;;;;;;;3.00;2.70;;;24.60;54.50;;;;;;10515070;28;20032;-56
2022/08/12 11:14:34;;;;;;;4.00;2.28;;;24.60;54.60;;;;;;10513792;28;20078;-57
2022/08/12 11:19:38;;;;;;;3.88;2.65;;;24.60;54.60;;;;;;10514268;28;20071;-58
2022/08/12 11:24:39;;;;;;;4.00;2.53;;;24.60;55.30;;;;;;10514370;28;20081;-58
2022/08/12 11:29:40;;;;;;;4.63;2.67;;;24.60;54.50;;;;;;10532118;28;20286;-56
2022/08/12 11:34:40;;;;;;;6.72;2.90;;;24.60;54.40;;;;;;10513504;28;20411;-57
2022/08/12 11:39:41;;;;;;;3.50;2.80;;;24.60;54.10;;;;;;10512867;28;20536;-57
2022/08/12 11:44:42;;;;;;;3.30;2.25;;;24.60;54.50;;;;;;10525056;28;20096;-54
2022/08/12 11:49:42;;;;;;;4.57;2.75;;;24.60;54.60;;;;;;10512576;28;20479;-55
2022/08/12 11:54:43;;;;;;;5.05;2.72;;;24.60;54.50;;;;;;10512247;28;20044;-56
2022/08/12 11:59:44;;;;;;;3.97;2.78;;;24.60;54.80;;;;;;10509995;28;20059;-64
2022/08/12 12:04:45;;;;;;;4.28;3.15;;;24.60;54.60;;;;;;10502648;28;20463;-54
2022/08/12 12:09:45;;;;;;;3.80;2.70;;;24.60;54.60;;;;;;10527961;28;20031;-54
2022/08/12 12:14:46;;;;;;;3.03;2.50;;;24.60;54.20;;;;;;10530754;28;20032;-55
2022/08/12 12:19:47;;;;;;;5.85;2.65;;;24.60;54.40;;;;;;10530499;28;20028;-55
2022/08/12 12:24:50;;;;;;;6.47;3.03;;;24.60;54.10;;;;;;10530098;28;20469;-54
2022/08/12 12:29:50;;;;;;;3.45;2.97;;;24.70;54.30;;;;;;10522829;28;20035;-54
2022/08/12 12:34:51;;;;;;;3.10;2.70;;;24.60;54.20;;;;;;10489640;28;20493;-55
2022/08/12 12:39:52;;;;;;;5.13;2.83;;;24.60;54.10;;;;;;10527628;28;20040;-53
2022/08/12 12:44:52;;;;;;;3.95;3.08;;;24.60;54.00;;;;;;10530348;28;20055;-53
2022/08/12 12:49:53;;;;;;;3.78;2.92;;;24.60;54.70;;;;;;10530924;28;20028;-53
2022/08/12 12:54:57;;;;;;;2.97;2.45;;;24.60;54.80;;;;;;10530221;28;20036;-55
2022/08/12 13:00:16;;;;;;;3.45;2.58;;;24.60;54.80;;;;;;10530201;28;20016;-55
2022/08/12 13:05:31;;;;;;;3.65;2.85;;;24.60;54.50;;;;;;10529946;28;20118;-55
2022/08/12 13:10:31;;;;;;;3.20;2.55;;;24.70;54.70;;;;;;10511360;28;20020;-54
2022/08/12 13:15:32;;;;;;;2.92;2.65;;;24.60;54.80;;;;;;10511614;28;20028;-54
2022/08/12 13:20:33;;;;;;;4.72;3.72;;;24.60;54.90;;;;;;10535189;28;20232;-55
2022/08/12 13:25:35;;;;;;;4.07;2.83;;;24.70;54.50;;;;;;10523270;28;20035;-55
2022/08/12 13:30:35;;;;;;;4.95;3.00;;;24.70;54.30;;;;;;10501569;28;20047;-54
2022/08/12 13:35:38;;;;;;;2.63;2.30;;;24.70;53.90;;;;;;10536492;28;20028;-55
2022/08/12 13:40:39;;;;;;;3.67;3.20;;;24.70;54.50;;;;;;10535692;28;20043;-55
2022/08/12 13:45:41;;;;;;;2.95;2.45;;;24.70;54.70;;;;;;10535613;28;20386;-54
2022/08/12 13:50:42;;;;;;;2.60;2.40;;;24.70;55.10;;;;;;10517260;28;20061;-54
2022/08/12 13:55:50;;;;;;;3.25;2.58;;;24.70;54.60;;;;;;10535547;28;20024;-54
2022/08/12 14:00:53;;;;;;;3.20;2.63;;;24.70;54.10;;;;;;10518002;28;20456;-54
2022/08/12 14:05:58;;;;;;;3.10;2.53;;;24.70;54.00;;;;;;10517574;28;20436;-55
2022/08/12 14:10:58;;;;;;;3.63;2.40;;;24.70;54.50;;;;;;10518042;28;20021;-55
2022/08/12 14:16:01;;;;;;;2.70;2.50;;;24.70;54.00;;;;;;10534626;28;20032;-55
2022/08/12 14:21:09;;;;;;;3.45;2.80;;;24.70;54.20;;;;;;10515757;28;20024;-54
2022/08/12 14:26:16;;;;;;;3.87;3.20;;;24.70;54.50;;;;;;10534087;28;20032;-54
2022/08/12 14:31:17;;;;;;;3.08;2.80;;;24.70;54.00;;;;;;10533766;28;20032;-53
2022/08/12 14:36:22;;;;;;;3.20;2.53;;;24.70;53.70;;;;;;10525021;28;20028;-52
2022/08/12 14:41:25;;;;;;;3.15;2.67;;;24.70;54.00;;;;;;10515001;28;20048;-54
2022/08/12 14:46:26;;;;;;;3.10;2.80;;;24.70;53.90;;;;;;10533813;28;20028;-54
2022/08/12 14:51:27;;;;;;;4.35;2.92;;;24.70;53.70;;;;;;10533433;28;20482;-54
2022/08/12 14:56:28;;;;;;;3.10;2.75;;;24.80;54.30;;;;;;10532149;28;20032;-53
2022/08/12 15:01:40;;;;;;;4.00;2.92;;;24.80;54.20;;;;;;10532640;28;20107;-55
2022/08/12 15:06:41;;;;;;;4.00;2.63;;;24.80;54.30;;;;;;10532671;28;20587;-55
2022/08/12 15:11:42;;;;;;;3.60;3.15;;;24.80;54.10;;;;;;10531895;28;20024;-54
2022/08/12 15:16:43;;;;;;;3.03;2.72;;;24.80;54.10;;;;;;10532211;28;20081;-54
2022/08/12 15:21:44;;;;;;;3.55;2.45;;;24.80;54.20;;;;;;10531391;28;20039;-53
2022/08/12 15:26:44;;;;;;;3.70;3.00;;;24.70;53.90;;;;;;10531851;28;20448;-55
2022/08/12 15:31:45;;;;;;;2.95;2.67;;;24.80;53.80;;;;;;10531522;28;20456;-55
2022/08/12 15:36:46;;;;;;;2.78;2.50;;;24.80;53.90;;;;;;10513113;28;20096;-54
2022/08/12 15:41:47;;;;;;;3.17;2.58;;;24.80;53.90;;;;;;10525345;28;20113;-53
2022/08/12 15:46:47;;;;;;;3.03;2.70;;;24.80;54.00;;;;;;10531226;28;20434;-54
2022/08/12 15:51:50;;;;;;;3.08;2.53;;;24.80;53.80;;;;;;10531373;28;20055;-53
2022/08/12 15:56:53;;;;;;;3.40;2.60;;;24.80;54.10;;;;;;10532169;28;20028;-55
2022/08/12 16:01:54;;;;;;;3.90;2.88;;;24.80;53.90;;;;;;10514663;28;20467;-54
2022/08/12 16:06:56;;;;;;;4.55;2.92;;;24.80;53.80;;;;;;10532123;28;20496;-54
2022/08/12 16:11:58;;;;;;;3.42;2.63;;;24.80;53.70;;;;;;10513156;28;20028;-55
2022/08/12 16:16:58;;;;;;;2.85;2.13;;;24.80;53.80;;;;;;10531348;28;20020;-54
2022/08/12 16:22:01;;;;;;;4.70;3.50;;;24.80;54.20;;;;;;10531665;28;20474;-53
2022/08/12 16:27:04;;;;;;;3.22;2.60;;;24.80;54.10;;;;;;10531815;28;20474;-54
2022/08/12 16:32:08;;;;;;;2.90;2.35;;;24.80;53.80;;;;;;10531410;28;20029;-53
2022/08/12 16:37:12;;;;;;;4.45;2.85;;;24.90;54.00;;;;;;10513530;28;20360;-54
2022/08/12 16:42:14;;;;;;;4.35;2.97;;;24.90;54.10;;;;;;10531383;28;20491;-52
2022/08/12 16:47:15;;;;;;;3.65;2.72;;;24.90;54.10;;;;;;10530760;28;20027;-53
2022/08/12 16:52:17;;;;;;;4.40;2.33;;;24.90;53.70;;;;;;10531963;28;20032;-53
2022/08/12 16:57:19;;;;;;;4.40;3.00;;;24.90;54.70;;;;;;10539129;28;20028;-52
2022/08/12 17:02:20;;;;;;;469.40;285.73;;;25.00;57.30;;;;;;10520716;28;20083;-53
2022/08/12 17:07:21;;;;;;;163.18;94.97;;;25.00;56.80;;;;;;10535214;28;20040;-51
2022/08/12 17:12:22;;;;;;;120.53;67.55;;;25.20;55.50;;;;;;10538403;28;20036;-52
2022/08/12 17:17:25;;;;;;;81.57;44.90;;;25.20;54.50;;;;;;10538826;28;20111;-53
2022/08/12 17:22:30;;;;;;;62.80;34.50;;;25.30;53.00;;;;;;10520543;28;20107;-53
2022/08/12 17:27:31;;;;;;;85.68;61.00;;;25.30;54.10;;;;;;10518558;28;20043;-56
2022/08/12 17:32:34;;;;;;;69.07;39.55;;;25.40;55.60;;;;;;10534434;28;20045;-53
2022/08/12 17:37:37;;;;;;;49.83;30.52;;;25.40;56.20;;;;;;10519521;28;20028;-54
2022/08/12 17:42:41;;;;;;;41.55;26.75;;;25.50;56.40;;;;;;10519657;28;20075;-54
2022/08/12 17:47:42;;;;;;;31.92;21.92;;;25.60;56.50;;;;;;10537453;28;20056;-54
2022/08/12 17:52:43;;;;;;;34.55;21.65;;;25.70;55.00;;;;;;10519205;28;20111;-54
2022/08/12 17:57:47;;;;;;;24.38;16.13;;;25.60;55.10;;;;;;10536700;28;20077;-53
2022/08/12 18:02:47;;;;;;;22.75;15.20;;;25.60;53.70;;;;;;10518149;28;20499;-53
2022/08/12 18:07:48;;;;;;;20.67;15.30;;;25.50;52.20;;;;;;10535694;28;20036;-53
2022/08/12 18:12:49;;;;;;;23.27;14.15;;;25.60;53.40;;;;;;10532602;28;20107;-52
2022/08/12 18:17:50;;;;;;;23.25;13.85;;;25.50;53.70;;;;;;10534401;28;20019;-52
2022/08/12 18:22:52;;;;;;;20.67;13.27;;;25.50;53.60;;;;;;10516935;28;20152;-54
2022/08/12 18:27:55;;;;;;;23.60;13.70;;;25.50;54.00;;;;;;10533897;28;20027;-53
2022/08/12 18:33:02;;;;;;;22.95;13.43;;;25.50;54.10;;;;;;10518273;28;20032;-51
2022/08/12 18:38:06;;;;;;;16.75;12.00;;;25.40;54.00;;;;;;10535256;28;20052;-53
2022/08/12 18:43:07;;;;;;;18.38;11.45;;;25.40;54.30;;;;;;10535526;28;20024;-54
2022/08/12 18:48:09;;;;;;;16.98;11.40;;;25.40;54.20;;;;;;10534520;28;20034;-53
2022/08/12 18:53:12;;;;;;;11.63;10.15;;;25.40;54.30;;;;;;10516414;28;20478;-53
2022/08/12 18:58:14;;;;;;;18.40;11.55;;;25.40;54.20;;;;;;10516394;28;20032;-53
2022/08/12 19:03:15;;;;;;;15.25;11.25;;;25.40;54.50;;;;;;10534829;28;20020;-53
2022/08/12 19:08:15;;;;;;;21.98;10.88;;;25.30;54.90;;;;;;10534309;28;20024;-54
2022/08/12 19:18:42;;;;;;;14.18;10.32;;;25.30;53.90;;;;;;10534618;28;20431;-53
2022/08/12 19:25:20;;;;;;;14.27;9.75;;;25.40;54.20;;;;;;10534145;28;20477;-54
2022/08/12 19:29:06;;;;;;;16.38;10.02;;;25.40;54.20;;;;;;10522429;28;20064;-53
2022/08/12 19:34:08;;;;;;;17.02;10.82;;;25.30;54.20;;;;;;10533523;28;20028;-52
2022/08/12 19:39:10;;;;;;;18.25;9.95;;;25.30;54.40;;;;;;10515045;28;20039;-52
2022/08/12 19:44:12;;;;;;;13.27;8.65;;;25.30;54.50;;;;;;10533885;28;20633;-54
2022/08/12 19:49:15;;;;;;;13.00;8.65;;;25.40;55.70;;;;;;10532248;28;20024;-54
2022/08/12 19:54:21;;;;;;;15.95;9.70;;;25.40;55.30;;;;;;10531836;28;20402;-54
2022/08/12 19:59:34;;;;;;;18.92;9.30;;;25.40;55.20;;;;;;10515100;28;20502;-53
2022/08/12 20:04:40;;;;;;;19.52;10.00;;;25.40;55.40;;;;;;10516131;28;20028;-53
2022/08/12 20:09:47;;;;;;;14.38;10.35;;;25.40;55.30;;;;;;10512113;28;20378;-52
2022/08/12 20:14:52;;;;;;;13.25;9.27;;;25.40;55.20;;;;;;10514784;28;20032;-53
2022/08/12 20:19:56;;;;;;;13.60;8.82;;;25.40;55.30;;;;;;10531899;28;20028;-53
2022/08/12 20:25:05;;;;;;;11.35;8.70;;;25.40;55.10;;;;;;10528106;28;20499;-53
2022/08/12 20:30:10;;;;;;;12.63;7.72;;;25.30;55.00;;;;;;10518981;28;20028;-53
2022/08/12 20:35:11;;;;;;;12.02;8.32;;;25.40;55.20;;;;;;10515212;28;20356;-53
2022/08/12 20:40:11;;;;;;;12.57;7.20;;;25.30;55.00;;;;;;10513604;28;20040;-54
2022/08/12 20:45:17;;;;;;;14.68;7.80;;;25.40;55.00;;;;;;10535048;28;20047;-53
2022/08/12 20:50:18;;;;;;;10.98;6.88;;;25.30;54.90;;;;;;10538847;28;20024;-52
2022/08/12 20:55:18;;;;;;;15.77;8.27;;;25.30;54.80;;;;;;10539027;28;20047;-53
2022/08/12 21:00:21;;;;;;;10.02;7.10;;;25.30;54.80;;;;;;10538985;28;20499;-54
2022/08/12 21:10:41;;;;;;;11.48;6.90;;;25.30;54.80;;;;;;10538656;28;20035;-54
2022/08/12 21:15:42;;;;;;;10.27;6.53;;;25.30;54.70;;;;;;10520094;28;20111;-53
2022/08/12 21:20:43;;;;;;;14.07;7.43;;;25.30;54.70;;;;;;10503533;28;20035;-53
2022/08/12 21:25:44;;;;;;;9.93;6.30;;;25.30;54.50;;;;;;10537691;28;20107;-53
2022/08/12 21:30:44;;;;;;;7.25;5.78;;;25.20;54.50;;;;;;10519518;28;20442;-53
2022/08/12 21:35:49;;;;;;;9.25;6.28;;;25.20;54.40;;;;;;10538039;28;20012;-52
2022/08/12 21:40:52;;;;;;;9.48;6.65;;;25.20;54.40;;;;;;10535910;28;20068;-54
2022/08/12 21:45:52;;;;;;;8.68;6.28;;;25.20;54.30;;;;;;10519193;28;20152;-53
2022/08/12 21:50:54;;;;;;;9.15;5.78;;;25.20;54.30;;;;;;10537180;28;20237;-53
2022/08/12 21:55:56;;;;;;;7.95;6.28;;;25.20;54.20;;;;;;10537109;28;20347;-54
2022/08/12 22:00:57;;;;;;;7.03;5.28;;;25.20;54.20;;;;;;10536802;28;20032;-53
2022/08/12 22:11:17;;;;;;;8.80;6.38;;;25.20;54.20;;;;;;10536517;28;20470;-54
2022/08/12 22:16:19;;;;;;;8.95;5.65;;;25.20;54.10;;;;;;10501576;28;20032;-54
2022/08/12 22:21:20;;;;;;;7.65;5.63;;;25.20;54.00;;;;;;10517853;28;20032;-53
2022/08/12 22:26:21;;;;;;;8.50;5.78;;;25.20;54.00;;;;;;10517372;28;20032;-53
2022/08/12 22:31:22;;;;;;;9.23;5.15;;;25.20;53.90;;;;;;10529781;28;20024;-54
2022/08/12 22:36:25;;;;;;;6.70;5.50;;;25.20;53.90;;;;;;10516981;28;20063;-54
2022/08/12 22:52:06;;;;;;;6.80;5.35;;;25.20;53.80;;;;;;10534116;28;20498;-53
2022/08/12 22:57:08;;;;;;;6.05;4.95;;;25.20;54.10;;;;;;10534324;28;20028;-54
2022/08/12 23:02:09;;;;;;;8.32;5.75;;;25.20;54.00;;;;;;10516335;28;20428;-54
2022/08/12 23:07:09;;;;;;;5.82;4.95;;;25.20;54.00;;;;;;10515350;28;20038;-54
2022/08/12 23:12:10;;;;;;;7.85;4.55;;;25.10;53.80;;;;;;10533774;28;20061;-54
2022/08/12 23:17:11;;;;;;;6.30;5.07;;;25.10;53.80;;;;;;10515943;28;20027;-54
2022/08/12 23:22:12;;;;;;;5.50;4.60;;;25.20;53.90;;;;;;10533487;28;20844;-53
2022/08/12 23:32:49;;;;;;;5.57;4.82;;;25.20;53.90;;;;;;10456904;28;20360;-53
2022/08/12 23:37:50;;;;;;;6.22;5.10;;;25.20;53.80;;;;;;10514641;28;20131;-54
2022/08/12 23:42:54;;;;;;;5.07;4.35;;;25.10;53.60;;;;;;10532854;28;20103;-53
2022/08/12 23:47:57;;;;;;;5.57;4.53;;;25.10;53.60;;;;;;10532786;28;20424;-54
2022/08/12 23:53:02;;;;;;;5.03;4.43;;;25.10;53.80;;;;;;10518874;28;20036;-55
2022/08/12 23:58:07;;;;;;;5.60;3.95;;;25.10;53.70;;;;;;10532586;28;20054;-53
